createdAt,value
2018-07-12T16:43:38.141Z,44.3
2018-07-12T16:44:28.185Z,44.3
2018-07-12T16:45:17.782Z,44.3
2018-07-12T16:46:08.363Z,44.1
2018-07-12T16:46:58.112Z,44.1
2018-07-12T16:47:48.254Z,44.1
2018-07-12T16:49:22.117Z,43.9
2018-07-12T16:50:12.907Z,43.9
2018-07-12T16:51:02.410Z,43.9
2018-07-12T16:51:52.220Z,43.8
2018-07-12T16:52:42.815Z,43.8
2018-07-12T16:53:33.160Z,43.8
2018-07-12T16:54:23.167Z,43.7
2018-07-12T16:55:13.070Z,43.6
2018-07-12T16:56:02.600Z,43.6
2018-07-12T16:56:52.917Z,43.6
2018-07-12T16:57:43.195Z,43.5
2018-07-12T16:58:33.002Z,43.5
2018-07-12T16:59:23.137Z,43.4
2018-07-12T17:00:12.861Z,43.4
2018-07-12T17:01:02.986Z,43.4
2018-07-12T17:01:53.251Z,43.3
2018-07-12T17:02:43.639Z,43.3
2018-07-12T17:03:33.656Z,43.3
2018-07-12T17:04:23.749Z,43.1
2018-07-12T17:05:13.609Z,43.1
2018-07-12T17:06:03.915Z,43.1
2018-07-12T17:06:54.251Z,43.1
2018-07-12T17:07:44.682Z,43
2018-07-12T17:08:34.126Z,43
2018-07-12T17:09:23.253Z,42.9
2018-07-12T17:10:13.630Z,42.9
2018-07-12T17:11:04.556Z,42.9
2018-07-12T17:11:54.107Z,42.8
2018-07-12T17:12:44.379Z,42.8
2018-07-12T17:13:34.502Z,42.8
2018-07-12T17:14:24.808Z,42.7
2018-07-12T17:15:14.303Z,42.6
2018-07-12T17:16:04.648Z,42.6
2018-07-12T17:16:54.147Z,42.6
2018-07-12T17:17:44.716Z,42.6
2018-07-12T17:18:34.807Z,42.6
2018-07-12T17:19:24.881Z,42.5
2018-07-12T17:20:14.968Z,42.4
2018-07-12T17:21:04.737Z,42.4
2018-07-12T17:21:54.789Z,42.4
2018-07-12T17:22:45.131Z,42.4
2018-07-12T17:23:35.317Z,42.3
2018-07-12T17:24:25.326Z,42.3
2018-07-12T17:25:15.046Z,42.3
2018-07-12T17:26:05.485Z,42.3
2018-07-12T17:26:55.175Z,42.2
2018-07-12T17:27:45.799Z,42.2
2018-07-12T17:28:35.855Z,42.1
2018-07-12T17:29:25.955Z,42.1
2018-07-12T17:30:15.723Z,41.9
2018-07-12T17:31:05.969Z,42.1
2018-07-12T17:31:55.824Z,42
2018-07-12T17:32:46.180Z,41.9
2018-07-12T17:33:35.976Z,41.9
2018-07-12T17:34:26.052Z,41.9
2018-07-12T17:35:16.153Z,41.9
2018-07-12T17:36:06.195Z,41.8
2018-07-12T17:36:56.227Z,41.9
2018-07-12T17:37:45.750Z,41.8
2018-07-12T17:38:36.397Z,41.8
2018-07-12T17:39:26.161Z,41.8
2018-07-12T17:40:16.793Z,41.7
2018-07-12T17:41:07.774Z,41.7
2018-07-12T17:41:56.887Z,41.6
2018-07-12T17:42:46.677Z,41.6
2018-07-12T17:43:37.119Z,41.6
2018-07-12T17:44:27.089Z,41.6
2018-07-12T17:45:16.873Z,41.5
2018-07-12T17:46:06.941Z,41.6
2018-07-12T17:46:57.296Z,41.5
2018-07-12T17:47:48.693Z,41.4
2018-07-12T17:48:37.469Z,41.4
2018-07-12T17:49:27.471Z,41.4
2018-07-12T17:50:16.992Z,41.4
2018-07-12T17:51:07.320Z,41.4
2018-07-12T17:51:57.701Z,41.4
2018-07-12T17:52:47.449Z,41.3
2018-07-12T17:53:37.501Z,41.3
2018-07-12T17:54:27.889Z,41.3
2018-07-12T17:55:17.888Z,41.3
2018-07-12T17:56:08.466Z,41.3
2018-07-12T17:56:58.063Z,41.3
2018-07-12T17:57:47.282Z,41.2
2018-07-12T17:58:38.183Z,41.2
2018-07-12T17:59:27.948Z,41.2
2018-07-12T18:00:18.054Z,41.1
2018-07-12T18:01:07.881Z,41.2
2018-07-12T18:01:58.456Z,41.1
2018-07-12T18:02:48.558Z,41.1
2018-07-12T18:03:38.625Z,41.1
2018-07-12T18:04:28.631Z,41
2018-07-12T18:05:19.929Z,41.1
2018-07-12T18:06:08.795Z,41
2018-07-12T18:06:58.515Z,41
2018-07-12T18:07:48.060Z,40.9
2018-07-12T18:08:38.682Z,40.9
2018-07-12T18:09:28.805Z,40.9
2018-07-12T18:10:18.594Z,40.9
2018-07-12T18:11:08.884Z,40.8
2018-07-12T18:11:58.939Z,40.9
2018-07-12T18:12:48.707Z,40.8
2018-07-12T18:13:38.827Z,40.8
2018-07-12T18:14:30.566Z,40.7
2018-07-12T18:15:19.489Z,40.7
2018-07-12T18:16:09.523Z,40.7
2018-07-12T18:16:59.630Z,40.7
2018-07-12T18:17:49.411Z,40.7
2018-07-12T18:18:39.233Z,40.6
2018-07-12T18:19:29.525Z,40.6
2018-07-12T18:20:19.828Z,40.7
2018-07-12T18:21:09.655Z,40.6
2018-07-12T18:22:02.075Z,40.6
2018-07-12T18:22:49.774Z,40.6
2018-07-12T18:23:40.083Z,40.5
2018-07-12T18:24:29.887Z,40.5
2018-07-12T18:25:19.940Z,40.5
2018-07-12T18:26:09.804Z,40.4
2018-07-12T18:26:59.857Z,40.4
2018-07-12T18:27:50.115Z,40.4
2018-07-12T18:28:39.907Z,40.4
2018-07-12T18:29:30.059Z,40.4
2018-07-12T18:30:20.602Z,40.4
2018-07-12T18:31:10.636Z,40.3
2018-07-12T18:31:59.969Z,40.4
2018-07-12T18:32:49.766Z,40.4
2018-07-12T18:33:40.387Z,40.3
2018-07-12T18:34:30.182Z,40.3
2018-07-12T18:35:20.347Z,40.3
2018-07-12T18:36:10.812Z,40.3
2018-07-12T18:37:01.120Z,40.3
2018-07-12T18:37:50.651Z,40.3
2018-07-12T18:38:40.964Z,40.3
2018-07-12T18:39:30.744Z,40.2
2018-07-12T18:40:20.845Z,40.2
2018-07-12T18:41:11.480Z,40.2
2018-07-12T18:42:01.474Z,40.2
2018-07-12T18:42:51.538Z,40.1
2018-07-12T18:43:42.921Z,40.1
2018-07-12T18:44:31.678Z,40.1
2018-07-12T18:45:21.560Z,40.1
2018-07-12T18:46:11.278Z,40.1
2018-07-12T18:47:01.875Z,40.1
2018-07-12T18:47:51.675Z,40.1
2018-07-12T18:48:42.017Z,40
2018-07-12T18:49:31.879Z,40
2018-07-12T18:50:21.912Z,40
2018-07-12T18:51:12.198Z,40
2018-07-12T18:52:02.264Z,40
2018-07-12T18:52:52.065Z,39.9
2018-07-12T18:53:42.095Z,39.9
2018-07-12T18:54:32.440Z,39.9
2018-07-12T18:55:22.322Z,39.9
2018-07-12T18:56:12.097Z,39.9
2018-07-12T18:57:03.023Z,39.8
2018-07-12T18:57:52.807Z,39.9
2018-07-12T18:58:42.297Z,39.8
2018-07-12T18:59:32.852Z,39.8
2018-07-12T19:00:22.912Z,39.8
2018-07-12T19:01:12.715Z,39.8
2018-07-12T19:02:02.509Z,39.8
2018-07-12T19:02:52.822Z,39.8
2018-07-12T19:03:42.857Z,39.8
2018-07-12T19:04:32.956Z,39.8
2018-07-12T19:05:23.364Z,39.8
2018-07-12T19:06:13.326Z,39.7
2018-07-12T19:07:03.182Z,39.7
2018-07-12T19:07:53.456Z,39.7
2018-07-12T19:08:44.141Z,39.7
2018-07-12T19:09:33.358Z,39.6
2018-07-12T19:10:23.711Z,39.6
2018-07-12T19:11:13.724Z,39.6
2018-07-12T19:12:03.600Z,39.6
2018-07-12T19:12:53.036Z,39.6
2018-07-12T19:13:43.929Z,39.5
2018-07-12T19:14:33.962Z,39.5
2018-07-12T19:15:24.596Z,39.5
2018-07-12T19:16:14.149Z,39.5
2018-07-12T19:17:04.192Z,39.5
2018-07-12T19:17:54.270Z,39.5
2018-07-12T19:18:44.061Z,39.5
2018-07-12T19:19:34.396Z,39.5
2018-07-12T19:20:24.304Z,39.5
2018-07-12T19:21:14.376Z,39.4
2018-07-12T19:22:04.584Z,39.4
2018-07-12T19:22:54.091Z,39.4
2018-07-12T19:23:44.461Z,39.4
2018-07-12T19:24:34.809Z,39.4
2018-07-12T19:25:24.834Z,39.4
2018-07-12T19:26:14.109Z,39.4
2018-07-12T19:27:04.721Z,39.4
2018-07-12T19:27:54.479Z,39.3
2018-07-12T19:28:44.551Z,39.3
2018-07-12T19:29:35.209Z,39.3
2018-07-12T19:30:24.955Z,39.3
2018-07-12T19:31:14.330Z,39.3
2018-07-12T19:32:04.884Z,39.3
2018-07-12T19:32:55.167Z,39.3
2018-07-12T19:33:46.153Z,39.3
2018-07-12T19:34:35.138Z,39.3
2018-07-12T19:35:25.104Z,39.2
2018-07-12T19:36:15.131Z,39.2
2018-07-12T19:37:05.490Z,39.2
2018-07-12T19:37:55.814Z,39.2
2018-07-12T19:38:45.894Z,39.2
2018-07-12T19:39:34.822Z,39.2
2018-07-12T19:40:25.729Z,39.1
2018-07-12T19:41:16.038Z,39.1
2018-07-12T19:42:06.272Z,39.1
2018-07-12T19:42:55.977Z,39.1
2018-07-12T19:43:45.785Z,39.1
2018-07-12T19:44:36.341Z,39.1
2018-07-12T19:45:26.374Z,39.1
2018-07-12T19:46:15.608Z,39.1
2018-07-12T19:47:06.666Z,39
2018-07-12T19:47:56.574Z,39.1
2018-07-12T19:48:46.605Z,39
2018-07-12T19:49:36.388Z,39
2018-07-12T19:50:26.726Z,39
2018-07-12T19:51:16.824Z,39
2018-07-12T19:52:06.648Z,38.9
2018-07-12T19:52:56.949Z,38.9
2018-07-12T19:53:46.713Z,38.9
2018-07-12T19:54:36.819Z,38.9
2018-07-12T19:55:27.265Z,38.9
2018-07-12T19:56:17.213Z,38.9
2018-07-12T19:57:06.513Z,38.9
2018-07-12T19:57:56.597Z,38.9
2018-07-12T19:58:46.953Z,38.9
2018-07-12T19:59:37.501Z,38.9
2018-07-12T20:00:27.031Z,38.9
2018-07-12T20:01:17.322Z,38.8
2018-07-12T20:02:07.646Z,38.8
2018-07-12T20:02:57.703Z,38.8
2018-07-12T20:03:48.129Z,38.8
2018-07-12T20:04:37.616Z,38.8
2018-07-12T20:05:27.703Z,38.8
2018-07-12T20:06:17.505Z,38.8
2018-07-12T20:07:07.763Z,38.8
2018-07-12T20:07:57.905Z,38.8
2018-07-12T20:08:48.162Z,38.8
2018-07-12T20:09:37.983Z,38.8
2018-07-12T20:10:27.486Z,38.8
2018-07-12T20:11:18.075Z,38.7
2018-07-12T20:12:08.166Z,38.8
2018-07-12T20:12:58.557Z,38.8
2018-07-12T20:13:48.527Z,38.7
2018-07-12T20:14:38.330Z,38.7
2018-07-12T20:15:28.398Z,38.7
2018-07-12T20:16:17.459Z,38.7
2018-07-12T20:17:07.795Z,38.7
2018-07-12T20:17:57.629Z,38.7
2018-07-12T20:18:48.169Z,38.6
2018-07-12T20:19:38.706Z,38.6
2018-07-12T20:20:29.069Z,38.6
2018-07-12T20:21:18.586Z,38.6
2018-07-12T20:22:08.923Z,38.6
2018-07-12T20:22:58.965Z,38.6
2018-07-12T20:23:49.061Z,38.6
2018-07-12T20:24:38.804Z,38.6
2018-07-12T20:25:30.757Z,38.6
2018-07-12T20:26:20.742Z,38.6
2018-07-12T20:27:09.550Z,38.6
2018-07-12T20:27:59.086Z,38.5
2018-07-12T20:28:49.680Z,38.6
2018-07-12T20:29:39.469Z,38.5
2018-07-12T20:30:29.821Z,38.5
2018-07-12T20:31:20.507Z,38.5
2018-07-12T20:32:09.699Z,38.5
2018-07-12T20:33:00.048Z,38.5
2018-07-12T20:33:49.861Z,38.4
2018-07-12T20:34:39.625Z,38.4
2018-07-12T20:35:29.112Z,38.4
2018-07-12T20:36:19.776Z,38.4
2018-07-12T20:37:10.452Z,38.4
2018-07-12T20:38:00.172Z,38.4
2018-07-12T20:38:49.941Z,38.4
2018-07-12T20:39:40.522Z,38.4
2018-07-12T20:40:30.585Z,38.4
2018-07-12T20:41:20.106Z,38.4
2018-07-12T20:42:10.751Z,38.4
2018-07-12T20:43:00.548Z,38.4
2018-07-12T20:43:50.862Z,38.4
2018-07-12T20:44:40.416Z,38.3
2018-07-12T20:45:31.023Z,38.3
2018-07-12T20:46:20.788Z,38.3
2018-07-12T20:47:11.092Z,38.3
2018-07-12T20:48:00.878Z,38.3
2018-07-12T20:48:50.590Z,38.3
2018-07-12T20:49:40.811Z,38.3
2018-07-12T20:50:31.094Z,38.3
2018-07-12T20:51:21.431Z,38.3
2018-07-12T20:52:10.955Z,38.3
2018-07-12T20:53:01.000Z,38.3
2018-07-12T20:53:51.607Z,38.3
2018-07-12T20:54:42.491Z,38.2
2018-07-12T20:55:31.461Z,38.2
2018-07-12T20:56:21.801Z,38.2
2018-07-12T20:57:11.878Z,38.2
2018-07-12T20:58:01.095Z,38.2
2018-07-12T20:58:52.007Z,38.2
2018-07-12T20:59:40.943Z,38.2
2018-07-12T21:00:31.604Z,38.2
2018-07-12T21:01:21.966Z,38.2
2018-07-12T21:02:12.323Z,38.1
2018-07-12T21:03:01.512Z,38.1
2018-07-12T21:03:52.150Z,38.1
2018-07-12T21:04:42.229Z,38.1
2018-07-12T21:05:31.413Z,38.1
2018-07-12T21:06:22.573Z,38.1
2018-07-12T21:07:11.992Z,38.1
2018-07-12T21:08:02.183Z,38.1
2018-07-12T21:08:52.522Z,38.1
2018-07-12T21:09:42.541Z,38.1
2018-07-12T21:10:32.897Z,38
2018-07-12T21:11:22.717Z,38.1
2018-07-12T21:12:12.745Z,38
2018-07-12T21:13:02.525Z,38
2018-07-12T21:13:53.121Z,38
2018-07-12T21:14:43.206Z,37.9
2018-07-12T21:15:34.009Z,38
2018-07-12T21:16:22.297Z,37.9
2018-07-12T21:17:12.369Z,37.9
2018-07-12T21:18:02.927Z,37.9
2018-07-12T21:18:53.227Z,37.9
2018-07-12T21:19:43.658Z,37.9
2018-07-12T21:20:33.366Z,37.9
2018-07-12T21:21:23.170Z,37.9
2018-07-12T21:22:13.545Z,37.9
2018-07-12T21:23:03.629Z,37.9
2018-07-12T21:23:53.727Z,37.9
2018-07-12T21:24:44.037Z,37.9
2018-07-12T21:25:33.776Z,37.9
2018-07-12T21:26:23.312Z,37.9
2018-07-12T21:27:13.634Z,37.9
2018-07-12T21:28:03.149Z,37.9
2018-07-12T21:28:53.752Z,37.8
2018-07-12T21:29:44.416Z,37.8
2018-07-12T21:30:34.280Z,37.8
2018-07-12T21:31:23.954Z,37.9
2018-07-12T21:32:14.058Z,37.8
2018-07-12T21:33:04.357Z,37.8
2018-07-12T21:33:54.714Z,37.8
2018-07-12T21:34:43.654Z,37.8
2018-07-12T21:35:34.359Z,37.8
2018-07-12T21:36:23.815Z,37.8
2018-07-12T21:37:14.511Z,37.8
2018-07-12T21:38:04.006Z,37.8
2018-07-12T21:38:54.341Z,37.7
2018-07-12T21:39:44.877Z,37.7
2018-07-12T21:40:35.211Z,37.8
2018-07-12T21:41:25.320Z,37.7
2018-07-12T21:42:14.512Z,37.7
2018-07-12T21:43:04.835Z,37.7
2018-07-12T21:43:55.475Z,37.7
2018-07-12T21:44:45.526Z,37.7
2018-07-12T21:45:35.005Z,37.7
2018-07-12T21:46:25.729Z,37.7
2018-07-12T21:47:15.489Z,37.6
2018-07-12T21:48:05.794Z,37.6
2018-07-12T21:48:55.821Z,37.6
2018-07-12T21:49:44.845Z,37.6
2018-07-12T21:50:35.471Z,37.6
2018-07-12T21:51:25.269Z,37.6
2018-07-12T21:52:15.616Z,37.6
2018-07-12T21:53:06.154Z,37.6
2018-07-12T21:53:56.212Z,37.6
2018-07-12T21:54:45.740Z,37.6
2018-07-12T21:55:36.049Z,37.6
2018-07-12T21:56:26.426Z,37.6
2018-07-12T21:57:16.210Z,37.6
2018-07-12T21:58:05.982Z,37.5
2018-07-12T21:58:56.617Z,37.5
2018-07-12T21:59:46.398Z,37.5
2018-07-12T22:00:36.767Z,37.5
2018-07-12T22:01:26.860Z,37.5
2018-07-12T22:02:16.579Z,37.5
2018-07-12T22:03:05.854Z,37.5
2018-07-12T22:03:56.717Z,37.5
2018-07-12T22:04:46.294Z,37.4
2018-07-12T22:05:36.594Z,37.4
2018-07-12T22:06:26.953Z,37.4
2018-07-12T22:07:16.706Z,37.4
2018-07-12T22:08:06.896Z,37.4
2018-07-12T22:08:56.379Z,37.4
2018-07-12T22:09:47.184Z,37.4
2018-07-12T22:10:37.266Z,37.4
2018-07-12T22:11:27.322Z,37.4
2018-07-12T22:12:17.215Z,37.4
2018-07-12T22:13:07.242Z,37.4
2018-07-12T22:13:57.468Z,37.4
2018-07-12T22:14:47.848Z,37.4
2018-07-12T22:15:37.917Z,37.4
2018-07-12T22:16:27.970Z,37.4
2018-07-12T22:17:17.185Z,37.4
2018-07-12T22:18:07.878Z,37.4
2018-07-12T22:18:57.851Z,37.4
2018-07-12T22:19:48.199Z,37.4
2018-07-12T22:20:37.707Z,37.4
2018-07-12T22:21:27.772Z,37.3
2018-07-12T22:22:18.090Z,37.3
2018-07-12T22:23:08.151Z,37.3
2018-07-12T22:23:58.318Z,37.3
2018-07-12T22:24:48.055Z,37.3
2018-07-12T22:25:38.642Z,37.3
2018-07-12T22:26:27.605Z,37.3
2018-07-12T22:27:18.541Z,37.3
2018-07-12T22:28:08.642Z,37.3
2018-07-12T22:28:58.867Z,37.3
2018-07-12T22:29:48.678Z,37.3
2018-07-12T22:30:39.680Z,37.3
2018-07-12T22:31:28.789Z,37.3
2018-07-12T22:32:18.861Z,37.3
2018-07-12T22:33:09.245Z,37.3
2018-07-12T22:33:59.306Z,37.3
2018-07-12T22:34:49.102Z,37.2
2018-07-12T22:35:39.149Z,37.2
2018-07-12T22:36:29.513Z,37.2
2018-07-12T22:37:19.023Z,37.2
2018-07-12T22:38:09.048Z,37.2
2018-07-12T22:38:59.668Z,37.2
2018-07-12T22:39:49.725Z,37.2
2018-07-12T22:40:39.534Z,37.2
2018-07-12T22:41:29.293Z,37.1
2018-07-12T22:42:19.438Z,37.2
2018-07-12T22:43:09.243Z,37.2
2018-07-12T22:43:59.321Z,37.2
2018-07-12T22:44:49.618Z,37.1
2018-07-12T22:45:39.641Z,37.1
2018-07-12T22:46:29.963Z,37.1
2018-07-12T22:47:19.760Z,37.1
2018-07-12T22:48:11.375Z,37.1
2018-07-12T22:49:01.973Z,37.1
2018-07-12T22:49:49.999Z,37.1
2018-07-12T22:50:40.142Z,37.1
2018-07-12T22:51:29.633Z,37.1
2018-07-12T22:52:20.725Z,37.1
2018-07-12T22:53:09.668Z,37.1
2018-07-12T22:54:00.845Z,37.1
2018-07-12T22:54:50.167Z,37.1
2018-07-12T22:55:40.214Z,37
2018-07-12T22:56:30.230Z,37
2018-07-12T22:57:20.396Z,37.1
2018-07-12T22:58:11.166Z,37
2018-07-12T22:59:00.647Z,37
2018-07-12T22:59:51.271Z,37
2018-07-12T23:00:40.792Z,37
2018-07-12T23:01:31.096Z,37
2018-07-12T23:02:21.189Z,37
2018-07-12T23:03:11.551Z,37
2018-07-12T23:04:01.578Z,37
2018-07-12T23:04:51.371Z,36.9
2018-07-12T23:05:41.458Z,36.9
2018-07-12T23:06:31.125Z,36.9
2018-07-12T23:07:21.862Z,36.9
2018-07-12T23:08:11.338Z,36.9
2018-07-12T23:09:01.149Z,36.9
2018-07-12T23:09:51.482Z,36.9
2018-07-12T23:10:41.270Z,36.9
2018-07-12T23:11:31.682Z,36.9
2018-07-12T23:12:21.662Z,36.9
2018-07-12T23:13:12.027Z,36.9
2018-07-12T23:14:02.094Z,36.9
2018-07-12T23:14:52.192Z,36.9
2018-07-12T23:15:42.230Z,36.9
2018-07-12T23:16:32.569Z,36.9
2018-07-12T23:17:21.773Z,36.9
2018-07-12T23:18:12.757Z,36.9
2018-07-12T23:19:01.633Z,36.9
2018-07-12T23:19:52.252Z,36.8
2018-07-12T23:20:42.632Z,36.9
2018-07-12T23:21:32.686Z,36.9
2018-07-12T23:22:22.203Z,36.9
2018-07-12T23:23:11.673Z,36.9
2018-07-12T23:24:02.305Z,36.8
2018-07-12T23:24:54.271Z,36.8
2018-07-12T23:25:42.880Z,36.8
2018-07-12T23:26:33.133Z,36.8
2018-07-12T23:27:23.373Z,36.8
2018-07-12T23:28:13.476Z,36.8
2018-07-12T23:29:03.558Z,36.8
2018-07-12T23:29:53.578Z,36.8
2018-07-12T23:30:43.080Z,36.8
2018-07-12T23:31:33.421Z,36.8
2018-07-12T23:32:23.736Z,36.8
2018-07-12T23:33:13.523Z,36.8
2018-07-12T23:34:03.939Z,36.8
2018-07-12T23:34:53.367Z,36.8
2018-07-12T23:35:44.005Z,36.8
2018-07-12T23:36:34.066Z,36.8
2018-07-12T23:37:23.285Z,36.8
2018-07-12T23:38:13.642Z,36.7
2018-07-12T23:39:04.011Z,36.7
2018-07-12T23:39:53.762Z,36.7
2018-07-12T23:40:43.275Z,36.7
2018-07-12T23:41:33.615Z,36.7
2018-07-12T23:42:23.981Z,36.7
2018-07-12T23:43:14.573Z,36.7
2018-07-12T23:44:04.415Z,36.7
2018-07-12T23:44:54.199Z,36.7
2018-07-12T23:45:44.259Z,36.6
2018-07-12T23:46:33.979Z,36.7
2018-07-12T23:47:23.780Z,36.7
2018-07-12T23:48:14.139Z,36.6
2018-07-12T23:49:04.199Z,36.6
2018-07-12T23:49:54.809Z,36.6
2018-07-12T23:50:44.083Z,36.6
2018-07-12T23:51:35.250Z,36.6
2018-07-12T23:52:24.471Z,36.6
2018-07-12T23:53:14.827Z,36.6
2018-07-12T23:54:04.904Z,36.6
2018-07-12T23:54:54.936Z,36.6
2018-07-12T23:55:45.042Z,36.6
2018-07-12T23:56:35.327Z,36.6
2018-07-12T23:57:24.869Z,36.6
2018-07-12T23:58:14.924Z,36.6
2018-07-12T23:59:05.252Z,36.6
2018-07-12T23:59:55.111Z,36.6
